sensor_id;sensor_type;location;lat;lon;timestamp;pressure;altitude;pressure_sealevel;temperature;humidity
43394;BME280;62479;62.642;17.954;2022-10-23T00:06:25;100862.96;;;1.74;71.53
43394;BME280;62479;62.642;17.954;2022-10-23T00:09:06;100863.95;;;1.57;71.66
43394;BME280;62479;62.642;17.954;2022-10-23T00:11:35;100864.67;;;1.62;71.57
43394;BME280;62479;62.642;17.954;2022-10-23T00:14:06;100865.17;;;1.63;71.55
43394;BME280;62479;62.642;17.954;2022-10-23T00:16:36;100865.59;;;1.81;71.55
43394;BME280;62479;62.642;17.954;2022-10-23T00:22:01;100866.47;;;1.86;71.44
43394;BME280;62479;62.642;17.954;2022-10-23T00:24:29;100864.44;;;1.78;71.60
43394;BME280;62479;62.642;17.954;2022-10-23T00:26:58;100867.21;;;1.71;71.54
43394;BME280;62479;62.642;17.954;2022-10-23T00:29:56;100870.35;;;1.60;71.70
43394;BME280;62479;62.642;17.954;2022-10-23T00:32:24;100868.39;;;1.65;71.81
43394;BME280;62479;62.642;17.954;2022-10-23T00:34:53;100868.12;;;1.69;71.95
43394;BME280;62479;62.642;17.954;2022-10-23T00:37:22;100866.38;;;1.68;71.92
43394;BME280;62479;62.642;17.954;2022-10-23T00:39:51;100867.62;;;1.67;71.90
43394;BME280;62479;62.642;17.954;2022-10-23T00:42:21;100866.29;;;1.69;71.72
43394;BME280;62479;62.642;17.954;2022-10-23T00:45:16;100867.72;;;1.64;71.45
43394;BME280;62479;62.642;17.954;2022-10-23T00:48:54;100870.57;;;1.78;71.56
43394;BME280;62479;62.642;17.954;2022-10-23T00:51:24;100872.63;;;1.78;71.55
43394;BME280;62479;62.642;17.954;2022-10-23T00:54:06;100872.19;;;1.83;71.65
43394;BME280;62479;62.642;17.954;2022-10-23T00:56:38;100872.64;;;1.72;71.83
43394;BME280;62479;62.642;17.954;2022-10-23T00:59:19;100874.74;;;2.00;72.13
43394;BME280;62479;62.642;17.954;2022-10-23T01:01:48;100874.69;;;2.08;71.92
43394;BME280;62479;62.642;17.954;2022-10-23T01:04:16;100879.23;;;2.08;71.71
43394;BME280;62479;62.642;17.954;2022-10-23T01:06:51;100882.52;;;2.02;71.47
43394;BME280;62479;62.642;17.954;2022-10-23T01:09:32;100886.64;;;2.19;71.49
43394;BME280;62479;62.642;17.954;2022-10-23T01:12:08;100889.26;;;2.32;71.99
43394;BME280;62479;62.642;17.954;2022-10-23T01:14:47;100888.95;;;2.55;72.14
43394;BME280;62479;62.642;17.954;2022-10-23T01:17:23;100895.34;;;2.53;71.80
43394;BME280;62479;62.642;17.954;2022-10-23T01:20:06;100897.96;;;2.65;71.70
43394;BME280;62479;62.642;17.954;2022-10-23T01:22:53;100893.20;;;2.69;71.50
43394;BME280;62479;62.642;17.954;2022-10-23T01:25:37;100896.42;;;2.58;70.74
43394;BME280;62479;62.642;17.954;2022-10-23T01:31:26;100905.90;;;2.58;70.28
43394;BME280;62479;62.642;17.954;2022-10-23T01:45:16;100905.43;;;2.32;71.56
43394;BME280;62479;62.642;17.954;2022-10-23T01:47:47;100903.37;;;2.19;71.47
43394;BME280;62479;62.642;17.954;2022-10-23T01:50:19;100905.55;;;2.16;71.56
43394;BME280;62479;62.642;17.954;2022-10-23T01:56:00;100905.43;;;1.87;71.56
43394;BME280;62479;62.642;17.954;2022-10-23T01:58:31;100909.59;;;1.65;71.59
43394;BME280;62479;62.642;17.954;2022-10-23T02:01:14;100916.08;;;1.52;71.88
43394;BME280;62479;62.642;17.954;2022-10-23T02:04:13;100922.40;;;1.49;71.69
43394;BME280;62479;62.642;17.954;2022-10-23T02:06:44;100922.45;;;1.46;71.98
43394;BME280;62479;62.642;17.954;2022-10-23T02:12:07;100927.35;;;1.34;72.23
43394;BME280;62479;62.642;17.954;2022-10-23T02:14:42;100927.75;;;1.10;72.31
43394;BME280;62479;62.642;17.954;2022-10-23T02:17:15;100931.97;;;1.31;72.37
43394;BME280;62479;62.642;17.954;2022-10-23T02:20:11;100930.38;;;1.35;72.41
43394;BME280;62479;62.642;17.954;2022-10-23T02:22:58;100928.15;;;1.35;72.77
43394;BME280;62479;62.642;17.954;2022-10-23T02:25:33;100926.22;;;1.46;72.64
43394;BME280;62479;62.642;17.954;2022-10-23T02:31:58;100933.26;;;1.52;71.54
43394;BME280;62479;62.642;17.954;2022-10-23T02:34:37;100937.39;;;1.40;71.36
43394;BME280;62479;62.642;17.954;2022-10-23T02:37:05;100936.35;;;1.55;72.36
43394;BME280;62479;62.642;17.954;2022-10-23T02:39:34;100937.56;;;1.48;72.60
43394;BME280;62479;62.642;17.954;2022-10-23T02:42:09;100941.09;;;1.51;72.74
43394;BME280;62479;62.642;17.954;2022-10-23T02:49:39;100941.76;;;1.45;72.54
43394;BME280;62479;62.642;17.954;2022-10-23T02:52:14;100940.25;;;1.32;72.60
43394;BME280;62479;62.642;17.954;2022-10-23T02:55:07;100940.46;;;1.21;72.54
43394;BME280;62479;62.642;17.954;2022-10-23T02:57:41;100939.77;;;1.02;72.74
43394;BME280;62479;62.642;17.954;2022-10-23T03:00:13;100941.01;;;1.17;73.08
43394;BME280;62479;62.642;17.954;2022-10-23T03:02:55;100941.09;;;1.30;73.18
43394;BME280;62479;62.642;17.954;2022-10-23T03:05:29;100941.85;;;1.43;72.92
43394;BME280;62479;62.642;17.954;2022-10-23T03:05:33;100941.44;;;1.35;72.92
43394;BME280;62479;62.642;17.954;2022-10-23T03:08:14;100942.65;;;1.55;72.81
43394;BME280;62479;62.642;17.954;2022-10-23T03:10:44;100941.05;;;1.39;72.61
43394;BME280;62479;62.642;17.954;2022-10-23T03:13:37;100941.15;;;1.43;72.53
43394;BME280;62479;62.642;17.954;2022-10-23T03:16:07;100942.95;;;1.50;72.81
43394;BME280;62479;62.642;17.954;2022-10-23T03:26:49;100950.94;;;1.49;72.68
43394;BME280;62479;62.642;17.954;2022-10-23T03:32:07;100953.89;;;1.35;72.35
43394;BME280;62479;62.642;17.954;2022-10-23T03:34:35;100959.74;;;1.24;72.41
43394;BME280;62479;62.642;17.954;2022-10-23T03:37:04;100957.45;;;1.17;72.47
43394;BME280;62479;62.642;17.954;2022-10-23T03:45:47;100966.04;;;0.96;73.16
43394;BME280;62479;62.642;17.954;2022-10-23T03:48:31;100967.04;;;1.03;73.52
43394;BME280;62479;62.642;17.954;2022-10-23T03:51:01;100967.61;;;0.95;73.73
43394;BME280;62479;62.642;17.954;2022-10-23T04:06:54;100975.55;;;1.83;73.65
43394;BME280;62479;62.642;17.954;2022-10-23T04:15:35;100982.14;;;2.30;72.49
43394;BME280;62479;62.642;17.954;2022-10-23T04:24:13;100982.49;;;2.16;72.05
43394;BME280;62479;62.642;17.954;2022-10-23T04:26:42;100984.53;;;1.90;72.19
43394;BME280;62479;62.642;17.954;2022-10-23T04:29:10;100983.30;;;1.99;72.45
43394;BME280;62479;62.642;17.954;2022-10-23T04:31:39;100982.98;;;2.01;72.34
43394;BME280;62479;62.642;17.954;2022-10-23T04:34:08;100991.24;;;1.81;71.77
43394;BME280;62479;62.642;17.954;2022-10-23T04:36:37;100993.08;;;1.62;71.60
43394;BME280;62479;62.642;17.954;2022-10-23T04:39:06;100998.01;;;1.49;71.77
43394;BME280;62479;62.642;17.954;2022-10-23T04:41:36;100999.66;;;1.35;72.10
43394;BME280;62479;62.642;17.954;2022-10-23T04:44:07;101002.25;;;1.32;72.24
43394;BME280;62479;62.642;17.954;2022-10-23T04:46:37;101002.78;;;1.30;72.57
43394;BME280;62479;62.642;17.954;2022-10-23T04:49:05;101006.61;;;1.25;72.79
43394;BME280;62479;62.642;17.954;2022-10-23T04:51:36;101007.61;;;1.01;72.73
43394;BME280;62479;62.642;17.954;2022-10-23T04:54:05;101012.78;;;1.27;73.00
43394;BME280;62479;62.642;17.954;2022-10-23T04:56:35;101023.79;;;1.07;72.81
43394;BME280;62479;62.642;17.954;2022-10-23T04:59:04;101023.63;;;1.07;72.70
43394;BME280;62479;62.642;17.954;2022-10-23T05:01:34;101024.60;;;1.11;72.77
43394;BME280;62479;62.642;17.954;2022-10-23T05:04:04;101030.15;;;1.09;72.75
43394;BME280;62479;62.642;17.954;2022-10-23T05:06:34;101031.26;;;1.09;72.84
43394;BME280;62479;62.642;17.954;2022-10-23T05:09:02;101027.31;;;1.30;73.02
43394;BME280;62479;62.642;17.954;2022-10-23T05:11:31;101022.20;;;1.48;73.21
43394;BME280;62479;62.642;17.954;2022-10-23T05:14:00;101024.28;;;1.66;72.88
43394;BME280;62479;62.642;17.954;2022-10-23T05:16:35;101025.72;;;1.98;72.52
43394;BME280;62479;62.642;17.954;2022-10-23T05:19:06;101018.96;;;1.95;72.11
43394;BME280;62479;62.642;17.954;2022-10-23T05:21:38;101017.03;;;2.03;71.72
43394;BME280;62479;62.642;17.954;2022-10-23T05:24:09;101016.66;;;2.06;71.45
43394;BME280;62479;62.642;17.954;2022-10-23T05:26:39;101018.46;;;2.06;71.20
43394;BME280;62479;62.642;17.954;2022-10-23T05:29:08;101023.21;;;2.00;71.12
43394;BME280;62479;62.642;17.954;2022-10-23T05:31:37;101022.21;;;2.03;71.03
43394;BME280;62479;62.642;17.954;2022-10-23T05:34:08;101019.87;;;1.94;70.95
43394;BME280;62479;62.642;17.954;2022-10-23T05:36:38;101017.60;;;1.94;71.05
43394;BME280;62479;62.642;17.954;2022-10-23T05:39:08;101015.83;;;1.98;71.00
43394;BME280;62479;62.642;17.954;2022-10-23T05:41:37;101021.92;;;1.92;71.04
43394;BME280;62479;62.642;17.954;2022-10-23T05:44:05;101024.34;;;1.97;70.84
43394;BME280;62479;62.642;17.954;2022-10-23T05:46:39;101028.00;;;1.95;70.79
43394;BME280;62479;62.642;17.954;2022-10-23T05:49:08;101030.17;;;1.95;70.61
43394;BME280;62479;62.642;17.954;2022-10-23T05:51:38;101034.71;;;1.90;70.91
43394;BME280;62479;62.642;17.954;2022-10-23T05:54:08;101035.53;;;1.86;70.95
43394;BME280;62479;62.642;17.954;2022-10-23T05:56:38;101037.00;;;1.94;70.68
43394;BME280;62479;62.642;17.954;2022-10-23T05:59:08;101041.43;;;1.92;70.40
43394;BME280;62479;62.642;17.954;2022-10-23T06:01:37;101046.29;;;2.05;70.39
43394;BME280;62479;62.642;17.954;2022-10-23T06:04:05;101044.78;;;1.99;70.51
43394;BME280;62479;62.642;17.954;2022-10-23T06:06:35;101044.68;;;1.99;70.46
43394;BME280;62479;62.642;17.954;2022-10-23T06:09:03;101045.87;;;2.00;70.57
43394;BME280;62479;62.642;17.954;2022-10-23T06:11:32;101042.70;;;1.98;70.64
43394;BME280;62479;62.642;17.954;2022-10-23T06:14:01;101041.60;;;1.97;70.67
43394;BME280;62479;62.642;17.954;2022-10-23T06:16:30;101044.54;;;1.98;70.61
43394;BME280;62479;62.642;17.954;2022-10-23T06:18:59;101043.61;;;2.03;70.53
43394;BME280;62479;62.642;17.954;2022-10-23T06:21:28;101043.87;;;2.21;70.20
43394;BME280;62479;62.642;17.954;2022-10-23T06:23:57;101043.88;;;2.26;70.22
43394;BME280;62479;62.642;17.954;2022-10-23T06:26:26;101045.31;;;2.19;70.20
43394;BME280;62479;62.642;17.954;2022-10-23T06:28:55;101049.54;;;2.28;69.82
43394;BME280;62479;62.642;17.954;2022-10-23T06:31:23;101054.52;;;2.29;69.75
43394;BME280;62479;62.642;17.954;2022-10-23T06:33:53;101054.71;;;2.41;69.63
43394;BME280;62479;62.642;17.954;2022-10-23T06:36:21;101055.38;;;2.48;69.53
43394;BME280;62479;62.642;17.954;2022-10-23T06:38:51;101060.00;;;2.45;70.27
43394;BME280;62479;62.642;17.954;2022-10-23T06:41:20;101062.82;;;2.65;70.14
43394;BME280;62479;62.642;17.954;2022-10-23T06:43:50;101067.36;;;2.64;69.88
43394;BME280;62479;62.642;17.954;2022-10-23T06:46:19;101064.43;;;2.71;69.53
43394;BME280;62479;62.642;17.954;2022-10-23T06:48:48;101061.69;;;2.66;69.56
43394;BME280;62479;62.642;17.954;2022-10-23T06:51:17;101062.37;;;2.71;69.49
43394;BME280;62479;62.642;17.954;2022-10-23T06:53:46;101070.34;;;2.92;69.62
43394;BME280;62479;62.642;17.954;2022-10-23T06:56:15;101075.31;;;2.93;69.68
43394;BME280;62479;62.642;17.954;2022-10-23T06:58:44;101070.00;;;3.20;69.65
43394;BME280;62479;62.642;17.954;2022-10-23T07:01:13;101074.65;;;3.39;69.49
43394;BME280;62479;62.642;17.954;2022-10-23T07:03:41;101079.75;;;3.53;69.11
43394;BME280;62479;62.642;17.954;2022-10-23T07:06:11;101081.41;;;3.60;68.21
43394;BME280;62479;62.642;17.954;2022-10-23T07:08:40;101082.75;;;3.55;67.23
43394;BME280;62479;62.642;17.954;2022-10-23T07:11:10;101081.86;;;3.59;67.42
43394;BME280;62479;62.642;17.954;2022-10-23T07:13:39;101084.15;;;3.72;67.36
43394;BME280;62479;62.642;17.954;2022-10-23T07:16:09;101085.77;;;3.80;67.13
43394;BME280;62479;62.642;17.954;2022-10-23T07:18:38;101089.49;;;3.84;66.48
43394;BME280;62479;62.642;17.954;2022-10-23T07:21:07;101093.36;;;3.95;65.75
43394;BME280;62479;62.642;17.954;2022-10-23T07:23:37;101090.49;;;4.14;65.04
43394;BME280;62479;62.642;17.954;2022-10-23T07:26:09;101089.05;;;4.16;65.25
43394;BME280;62479;62.642;17.954;2022-10-23T07:28:37;101097.25;;;4.26;65.25
43394;BME280;62479;62.642;17.954;2022-10-23T07:31:08;101098.73;;;4.40;64.80
43394;BME280;62479;62.642;17.954;2022-10-23T07:33:37;101098.80;;;4.50;64.77
43394;BME280;62479;62.642;17.954;2022-10-23T07:36:07;101104.89;;;4.61;63.77
43394;BME280;62479;62.642;17.954;2022-10-23T07:38:37;101107.06;;;4.72;63.88
43394;BME280;62479;62.642;17.954;2022-10-23T07:41:06;101108.63;;;4.79;63.30
43394;BME280;62479;62.642;17.954;2022-10-23T07:43:37;101115.88;;;4.97;62.94
43394;BME280;62479;62.642;17.954;2022-10-23T07:46:05;101112.73;;;5.04;61.95
43394;BME280;62479;62.642;17.954;2022-10-23T07:48:34;101115.36;;;5.08;62.71
43394;BME280;62479;62.642;17.954;2022-10-23T07:51:06;101116.54;;;5.21;61.97
43394;BME280;62479;62.642;17.954;2022-10-23T07:53:36;101118.86;;;5.34;60.72
43394;BME280;62479;62.642;17.954;2022-10-23T07:56:12;101119.74;;;5.47;60.56
43394;BME280;62479;62.642;17.954;2022-10-23T07:58:41;101125.25;;;5.58;60.37
43394;BME280;62479;62.642;17.954;2022-10-23T08:01:15;101131.83;;;5.74;60.25
43394;BME280;62479;62.642;17.954;2022-10-23T08:03:44;101134.35;;;5.63;58.46
43394;BME280;62479;62.642;17.954;2022-10-23T08:06:13;101136.09;;;5.60;60.74
43394;BME280;62479;62.642;17.954;2022-10-23T08:08:42;101136.25;;;5.68;59.00
43394;BME280;62479;62.642;17.954;2022-10-23T08:11:13;101133.88;;;5.60;59.82
43394;BME280;62479;62.642;17.954;2022-10-23T08:13:41;101135.38;;;5.54;59.76
43394;BME280;62479;62.642;17.954;2022-10-23T08:16:10;101139.81;;;5.64;60.44
43394;BME280;62479;62.642;17.954;2022-10-23T08:18:39;101142.85;;;5.67;60.32
43394;BME280;62479;62.642;17.954;2022-10-23T08:21:09;101144.58;;;5.68;58.63
43394;BME280;62479;62.642;17.954;2022-10-23T08:23:39;101147.91;;;5.75;58.05
43394;BME280;62479;62.642;17.954;2022-10-23T08:26:08;101153.10;;;5.73;58.51
43394;BME280;62479;62.642;17.954;2022-10-23T08:28:38;101155.12;;;5.70;58.23
43394;BME280;62479;62.642;17.954;2022-10-23T08:31:10;101160.36;;;5.70;59.22
43394;BME280;62479;62.642;17.954;2022-10-23T08:33:40;101164.71;;;5.67;58.39
43394;BME280;62479;62.642;17.954;2022-10-23T08:36:17;101166.99;;;5.78;57.93
43394;BME280;62479;62.642;17.954;2022-10-23T08:38:46;101172.53;;;5.89;57.29
43394;BME280;62479;62.642;17.954;2022-10-23T08:41:22;101175.50;;;5.99;58.33
43394;BME280;62479;62.642;17.954;2022-10-23T08:43:57;101173.65;;;6.02;56.03
43394;BME280;62479;62.642;17.954;2022-10-23T08:46:31;101176.40;;;6.23;54.80
43394;BME280;62479;62.642;17.954;2022-10-23T08:49:12;101177.67;;;6.42;56.08
43394;BME280;62479;62.642;17.954;2022-10-23T08:51:48;101180.63;;;6.59;56.02
43394;BME280;62479;62.642;17.954;2022-10-23T08:54:20;101180.49;;;6.71;54.08
43394;BME280;62479;62.642;17.954;2022-10-23T08:56:53;101182.17;;;6.75;54.81
43394;BME280;62479;62.642;17.954;2022-10-23T08:59:28;101183.07;;;6.79;54.72
43394;BME280;62479;62.642;17.954;2022-10-23T09:02:01;101183.60;;;6.95;53.72
43394;BME280;62479;62.642;17.954;2022-10-23T09:04:33;101185.98;;;7.04;53.23
43394;BME280;62479;62.642;17.954;2022-10-23T09:07:07;101189.64;;;7.06;54.99
43394;BME280;62479;62.642;17.954;2022-10-23T09:09:53;101192.45;;;7.19;53.92
43394;BME280;62479;62.642;17.954;2022-10-23T09:12:28;101194.00;;;7.37;52.75
43394;BME280;62479;62.642;17.954;2022-10-23T09:15:25;101198.72;;;7.48;52.39
43394;BME280;62479;62.642;17.954;2022-10-23T09:17:59;101209.02;;;7.67;49.22
43394;BME280;62479;62.642;17.954;2022-10-23T09:20:31;101216.16;;;7.69;48.94
43394;BME280;62479;62.642;17.954;2022-10-23T09:23:03;101218.69;;;7.78;49.52
43394;BME280;62479;62.642;17.954;2022-10-23T09:25:37;101217.71;;;7.85;48.24
43394;BME280;62479;62.642;17.954;2022-10-23T09:28:15;101220.16;;;8.03;49.86
43394;BME280;62479;62.642;17.954;2022-10-23T09:30:47;101220.34;;;8.33;49.29
43394;BME280;62479;62.642;17.954;2022-10-23T09:33:18;101219.34;;;8.77;49.39
43394;BME280;62479;62.642;17.954;2022-10-23T09:35:53;101214.75;;;9.18;49.18
43394;BME280;62479;62.642;17.954;2022-10-23T09:38:27;101214.80;;;9.44;48.04
43394;BME280;62479;62.642;17.954;2022-10-23T09:40:58;101220.55;;;9.48;47.27
43394;BME280;62479;62.642;17.954;2022-10-23T09:43:27;101219.74;;;9.34;47.66
43394;BME280;62479;62.642;17.954;2022-10-23T09:45:57;101215.95;;;9.19;46.37
43394;BME280;62479;62.642;17.954;2022-10-23T09:48:27;101216.18;;;9.21;46.22
43394;BME280;62479;62.642;17.954;2022-10-23T09:50:57;101219.94;;;9.18;46.79
43394;BME280;62479;62.642;17.954;2022-10-23T09:53:31;101221.53;;;9.31;45.41
43394;BME280;62479;62.642;17.954;2022-10-23T09:56:02;101224.03;;;9.14;44.35
43394;BME280;62479;62.642;17.954;2022-10-23T09:58:35;101229.98;;;9.13;46.40
43394;BME280;62479;62.642;17.954;2022-10-23T10:07:04;101232.96;;;9.38;44.86
43394;BME280;62479;62.642;17.954;2022-10-23T10:09:34;101237.03;;;9.41;46.05
43394;BME280;62479;62.642;17.954;2022-10-23T10:12:18;101232.98;;;9.29;44.73
43394;BME280;62479;62.642;17.954;2022-10-23T10:14:58;101239.94;;;9.00;43.06
43394;BME280;62479;62.642;17.954;2022-10-23T10:17:38;101243.85;;;8.72;44.62
43394;BME280;62479;62.642;17.954;2022-10-23T10:24:57;101246.48;;;7.97;45.97
43394;BME280;62479;62.642;17.954;2022-10-23T10:27:38;101250.74;;;8.24;45.53
43394;BME280;62479;62.642;17.954;2022-10-23T10:30:13;101245.94;;;8.72;44.89
43394;BME280;62479;62.642;17.954;2022-10-23T10:32:57;101247.53;;;8.83;44.91
43394;BME280;62479;62.642;17.954;2022-10-23T10:35:38;101248.43;;;8.96;46.01
43394;BME280;62479;62.642;17.954;2022-10-23T10:38:21;101248.95;;;8.75;45.97
43394;BME280;62479;62.642;17.954;2022-10-23T10:41:13;101253.26;;;8.78;46.32
43394;BME280;62479;62.642;17.954;2022-10-23T10:50:16;101251.15;;;8.29;45.32
43394;BME280;62479;62.642;17.954;2022-10-23T10:52:58;101254.78;;;8.06;46.00
43394;BME280;62479;62.642;17.954;2022-10-23T10:55:36;101248.73;;;7.77;46.00
43394;BME280;62479;62.642;17.954;2022-10-23T10:59:22;101242.86;;;7.54;46.83
43394;BME280;62479;62.642;17.954;2022-10-23T11:01:57;101244.59;;;7.41;47.10
43394;BME280;62479;62.642;17.954;2022-10-23T11:21:04;101240.99;;;7.38;47.69
43394;BME280;62479;62.642;17.954;2022-10-23T11:32:19;101239.47;;;7.24;46.19
43394;BME280;62479;62.642;17.954;2022-10-23T11:38:16;101236.86;;;7.55;48.48
43394;BME280;62479;62.642;17.954;2022-10-23T11:40:48;101237.87;;;8.08;44.89
43394;BME280;62479;62.642;17.954;2022-10-23T11:59:50;101220.19;;;10.36;40.17
43394;BME280;62479;62.642;17.954;2022-10-23T12:02:26;101223.86;;;9.69;40.55
43394;BME280;62479;62.642;17.954;2022-10-23T12:05:02;101228.31;;;9.24;40.45
43394;BME280;62479;62.642;17.954;2022-10-23T12:07:35;101233.96;;;9.03;40.78
43394;BME280;62479;62.642;17.954;2022-10-23T12:10:15;101239.00;;;8.58;41.48
43394;BME280;62479;62.642;17.954;2022-10-23T12:16:09;101245.97;;;7.88;42.97
43394;BME280;62479;62.642;17.954;2022-10-23T12:18:48;101243.35;;;7.46;45.05
43394;BME280;62479;62.642;17.954;2022-10-23T12:21:20;101248.44;;;7.13;47.66
43394;BME280;62479;62.642;17.954;2022-10-23T12:25:01;101251.23;;;7.14;48.35
43394;BME280;62479;62.642;17.954;2022-10-23T12:27:36;101255.14;;;7.15;47.90
43394;BME280;62479;62.642;17.954;2022-10-23T12:30:17;101254.75;;;7.51;47.09
43394;BME280;62479;62.642;17.954;2022-10-23T12:37:50;101251.06;;;8.27;45.96
43394;BME280;62479;62.642;17.954;2022-10-23T12:40:23;101252.92;;;8.59;45.57
43394;BME280;62479;62.642;17.954;2022-10-23T12:46:21;101248.82;;;8.56;43.70
43394;BME280;62479;62.642;17.954;2022-10-23T12:54:15;101267.60;;;9.03;43.73
43394;BME280;62479;62.642;17.954;2022-10-23T12:56:44;101270.65;;;9.00;43.68
43394;BME280;62479;62.642;17.954;2022-10-23T13:02:16;101269.76;;;9.26;43.00
43394;BME280;62479;62.642;17.954;2022-10-23T13:04:50;101270.54;;;9.22;42.82
43394;BME280;62479;62.642;17.954;2022-10-23T13:07:22;101273.77;;;9.26;42.63
43394;BME280;62479;62.642;17.954;2022-10-23T13:19:50;101276.10;;;8.88;43.62
43394;BME280;62479;62.642;17.954;2022-10-23T13:22:20;101278.31;;;8.83;43.97
43394;BME280;62479;62.642;17.954;2022-10-23T13:29:41;101275.53;;;8.28;44.38
43394;BME280;62479;62.642;17.954;2022-10-23T13:32:11;101270.78;;;8.01;44.82
43394;BME280;62479;62.642;17.954;2022-10-23T13:34:50;101268.74;;;7.78;45.57
43394;BME280;62479;62.642;17.954;2022-10-23T13:37:22;101275.48;;;7.35;45.91
43394;BME280;62479;62.642;17.954;2022-10-23T13:39:59;101279.27;;;7.06;46.80
43394;BME280;62479;62.642;17.954;2022-10-23T13:42:28;101284.94;;;6.58;47.54
43394;BME280;62479;62.642;17.954;2022-10-23T13:44:57;101281.03;;;6.19;48.56
43394;BME280;62479;62.642;17.954;2022-10-23T13:47:27;101284.57;;;5.95;49.26
43394;BME280;62479;62.642;17.954;2022-10-23T13:53:01;101281.76;;;5.51;50.39
43394;BME280;62479;62.642;17.954;2022-10-23T13:55:31;101284.57;;;5.39;50.99
43394;BME280;62479;62.642;17.954;2022-10-23T14:00:52;101285.62;;;4.98;51.73
43394;BME280;62479;62.642;17.954;2022-10-23T14:03:21;101283.40;;;4.98;52.16
43394;BME280;62479;62.642;17.954;2022-10-23T14:05:50;101290.42;;;4.67;52.87
43394;BME280;62479;62.642;17.954;2022-10-23T14:10:10;101292.67;;;4.54;53.40
43394;BME280;62479;62.642;17.954;2022-10-23T14:13:39;101287.34;;;4.22;53.84
43394;BME280;62479;62.642;17.954;2022-10-23T14:16:11;101289.28;;;4.19;54.73
43394;BME280;62479;62.642;17.954;2022-10-23T14:25:51;101302.37;;;3.40;56.61
43394;BME280;62479;62.642;17.954;2022-10-23T14:31:15;101303.66;;;3.15;57.17
43394;BME280;62479;62.642;17.954;2022-10-23T14:33:50;101314.13;;;3.12;57.03
43394;BME280;62479;62.642;17.954;2022-10-23T14:36:18;101319.17;;;3.17;57.22
43394;BME280;62479;62.642;17.954;2022-10-23T14:38:48;101322.67;;;2.95;56.90
43394;BME280;62479;62.642;17.954;2022-10-23T14:41:18;101323.96;;;2.86;57.05
43394;BME280;62479;62.642;17.954;2022-10-23T14:43:46;101326.58;;;2.83;56.84
43394;BME280;62479;62.642;17.954;2022-10-23T14:46:17;101329.38;;;2.72;56.55
43394;BME280;62479;62.642;17.954;2022-10-23T14:48:47;101325.26;;;2.67;56.89
43394;BME280;62479;62.642;17.954;2022-10-23T14:51:19;101324.85;;;2.41;57.29
43394;BME280;62479;62.642;17.954;2022-10-23T14:53:55;101328.88;;;2.35;57.61
43394;BME280;62479;62.642;17.954;2022-10-23T14:56:26;101334.72;;;2.15;57.69
43394;BME280;62479;62.642;17.954;2022-10-23T14:58:54;101343.76;;;2.01;58.20
43394;BME280;62479;62.642;17.954;2022-10-23T15:01:23;101343.49;;;1.88;58.80
43394;BME280;62479;62.642;17.954;2022-10-23T15:03:51;101345.87;;;1.64;60.14
43394;BME280;62479;62.642;17.954;2022-10-23T15:06:22;101342.00;;;1.50;60.95
43394;BME280;62479;62.642;17.954;2022-10-23T15:08:52;101341.83;;;1.37;61.20
43394;BME280;62479;62.642;17.954;2022-10-23T15:11:21;101345.58;;;1.09;61.63
43394;BME280;62479;62.642;17.954;2022-10-23T15:13:52;101358.31;;;0.95;61.35
43394;BME280;62479;62.642;17.954;2022-10-23T15:16:21;101364.07;;;0.93;61.64
43394;BME280;62479;62.642;17.954;2022-10-23T15:18:51;101369.57;;;0.80;62.25
43394;BME280;62479;62.642;17.954;2022-10-23T15:21:20;101370.93;;;0.75;62.51
43394;BME280;62479;62.642;17.954;2022-10-23T15:23:49;101369.66;;;0.55;62.56
43394;BME280;62479;62.642;17.954;2022-10-23T15:26:19;101370.93;;;0.38;63.51
43394;BME280;62479;62.642;17.954;2022-10-23T15:28:52;101377.01;;;0.22;63.47
43394;BME280;62479;62.642;17.954;2022-10-23T15:31:39;101379.35;;;0.04;63.56
43394;BME280;62479;62.642;17.954;2022-10-23T15:34:11;101382.35;;;-0.03;64.28
43394;BME280;62479;62.642;17.954;2022-10-23T15:36:40;101388.69;;;-0.13;64.26
43394;BME280;62479;62.642;17.954;2022-10-23T15:39:11;101390.50;;;-0.20;64.26
43394;BME280;62479;62.642;17.954;2022-10-23T15:41:41;101393.25;;;-0.23;64.37
43394;BME280;62479;62.642;17.954;2022-10-23T15:44:14;101391.92;;;-0.39;64.21
43394;BME280;62479;62.642;17.954;2022-10-23T15:46:44;101388.94;;;-0.20;63.80
43394;BME280;62479;62.642;17.954;2022-10-23T15:49:12;101387.30;;;-0.31;64.06
43394;BME280;62479;62.642;17.954;2022-10-23T15:51:42;101395.48;;;-0.20;63.87
43394;BME280;62479;62.642;17.954;2022-10-23T15:54:13;101398.97;;;-0.02;63.46
43394;BME280;62479;62.642;17.954;2022-10-23T15:56:44;101398.46;;;-0.10;63.28
43394;BME280;62479;62.642;17.954;2022-10-23T15:59:14;101402.40;;;-0.04;63.70
43394;BME280;62479;62.642;17.954;2022-10-23T16:03:23;101407.33;;;0.12;63.25
43394;BME280;62479;62.642;17.954;2022-10-23T16:05:52;101403.65;;;0.10;63.44
43394;BME280;62479;62.642;17.954;2022-10-23T16:08:21;101400.27;;;-0.12;63.96
43394;BME280;62479;62.642;17.954;2022-10-23T16:10:51;101403.75;;;-0.23;63.62
43394;BME280;62479;62.642;17.954;2022-10-23T16:13:21;101410.63;;;-0.36;63.98
43394;BME280;62479;62.642;17.954;2022-10-23T16:15:50;101417.20;;;-0.32;64.32
43394;BME280;62479;62.642;17.954;2022-10-23T16:18:19;101418.19;;;-0.51;64.36
43394;BME280;62479;62.642;17.954;2022-10-23T16:20:49;101425.32;;;-0.51;65.27
43394;BME280;62479;62.642;17.954;2022-10-23T16:23:18;101432.87;;;-0.77;66.24
43394;BME280;62479;62.642;17.954;2022-10-23T16:25:47;101434.37;;;-0.88;65.80
43394;BME280;62479;62.642;17.954;2022-10-23T16:28:17;101433.51;;;-1.11;66.48
43394;BME280;62479;62.642;17.954;2022-10-23T16:30:46;101435.97;;;-1.02;66.56
43394;BME280;62479;62.642;17.954;2022-10-23T16:33:15;101436.77;;;-1.12;67.17
43394;BME280;62479;62.642;17.954;2022-10-23T16:35:43;101444.05;;;-0.95;67.16